Time;durP1;ratioP1;P1;durP2;ratioP2;P2;SDS_P1;SDS_P2;PMS_P1;PMS_P2;Temp;Humidity;BMP_temperature;BMP_pressure;BME280_temperature;BME280_humidity;BME280_pressure;Samples;Min_cycle;Max_cycle;Signal;HPM_P1;HPM_P2
2021/01/19 00:00:20;;;;;;;8.45;3.85;;;;;;;-1.85;100.00;96719.72;1028280;28;20057;-75
2021/01/19 00:00:51;;;;;;;8.55;4.57;;;;;;;-1.86;100.00;96714.59;1032312;28;20018;-76
2021/01/19 00:01:22;;;;;;;8.68;3.75;;;;;;;-1.91;100.00;96701.84;1032049;28;20022;-77
2021/01/19 00:01:52;;;;;;;6.25;3.55;;;;;;;-1.88;100.00;96716.44;1032399;28;20109;-76
2021/01/19 00:02:23;;;;;;;7.50;3.90;;;;;;;-2.01;100.00;96698.03;1028224;28;20031;-76
2021/01/19 00:02:54;;;;;;;8.75;4.05;;;;;;;-1.89;100.00;96710.41;1032257;28;20089;-77
2021/01/19 00:03:25;;;;;;;7.00;3.97;;;;;;;-1.90;100.00;96708.69;1028342;28;20547;-77
2021/01/19 00:03:56;;;;;;;8.88;3.75;;;;;;;-2.02;100.00;96684.19;1032193;28;20029;-76
2021/01/19 00:04:27;;;;;;;9.20;4.25;;;;;;;-1.91;100.00;96713.06;1032217;28;20026;-76
2021/01/19 00:05:00;;;;;;;8.25;3.97;;;;;;;-1.91;100.00;96707.88;1028336;28;20258;-76
2021/01/19 00:05:31;;;;;;;6.97;3.45;;;;;;;-1.87;100.00;96707.72;1032450;28;20502;-77
2021/01/19 00:06:04;;;;;;;6.85;4.00;;;;;;;-2.02;100.00;96675.50;1032394;28;20023;-76
2021/01/19 00:06:37;;;;;;;5.88;3.38;;;;;;;-1.99;100.00;96678.78;1036335;28;20052;-76
2021/01/19 00:07:07;;;;;;;8.85;3.75;;;;;;;-1.82;100.00;96710.91;1032347;28;20037;-76
2021/01/19 00:07:38;;;;;;;7.82;3.50;;;;;;;-1.79;100.00;96701.19;1032402;28;20026;-77
2021/01/19 00:08:10;;;;;;;6.45;4.22;;;;;;;-1.79;100.00;96700.34;1032379;28;20029;-76
2021/01/19 00:08:41;;;;;;;10.55;3.83;;;;;;;-1.79;100.00;96698.59;1032255;28;20023;-76
2021/01/19 00:09:11;;;;;;;6.60;3.42;;;;;;;-1.79;100.00;96700.34;1036407;28;20029;-76
2021/01/19 00:09:42;;;;;;;6.97;3.88;;;;;;;-1.80;100.00;96696.88;1024353;29;20485;-77
2021/01/19 00:10:13;;;;;;;7.88;3.80;;;;;;;-1.82;100.00;96692.69;1036437;28;20390;-77
2021/01/19 00:10:44;;;;;;;7.85;3.70;;;;;;;-1.82;100.00;96690.94;1032234;28;20026;-77
2021/01/19 00:11:14;;;;;;;8.20;3.97;;;;;;;-2.00;100.00;96666.72;1036340;28;20437;-76
2021/01/19 00:11:45;;;;;;;7.97;3.63;;;;;;;-1.82;100.00;96690.09;1024410;29;20057;-76
2021/01/19 00:12:16;;;;;;;7.38;3.60;;;;;;;-2.03;100.00;96656.47;1032271;28;20153;-77
2021/01/19 00:12:46;;;;;;;8.50;3.75;;;;;;;-1.82;100.00;96690.94;1024233;29;20345;-77
2021/01/19 00:13:24;;;;;;;11.57;3.75;;;;;;;-1.91;100.00;96670.59;1032358;28;20037;-77
2021/01/19 00:13:55;;;;;;;5.70;3.35;;;;;;;-2.00;100.00;96658.06;1032385;28;20414;-77
2021/01/19 00:14:27;;;;;;;8.40;4.10;;;;;;;-1.82;100.00;96690.09;1036390;28;20022;-76
2021/01/19 00:14:58;;;;;;;7.68;3.85;;;;;;;-2.01;100.00;96657.22;1024175;29;20027;-76
2021/01/19 00:15:29;;;;;;;7.32;3.60;;;;;;;-1.80;100.00;96688.25;1036321;28;20261;-76
2021/01/19 00:15:59;;;;;;;8.13;3.70;;;;;;;-1.83;100.00;96684.06;1024287;29;20027;-77
2021/01/19 00:16:30;;;;;;;7.50;4.07;;;;;;;-1.96;100.00;96670.00;1036377;28;20498;-76
2021/01/19 00:17:01;;;;;;;11.90;3.92;;;;;;;-1.92;100.00;96674.13;1024190;29;20027;-76
2021/01/19 00:17:32;;;;;;;6.88;3.63;;;;;;;-1.80;100.00;96686.47;1032159;28;20110;-76
2021/01/19 00:18:03;;;;;;;8.27;3.75;;;;;;;-1.84;100.00;96686.75;1028544;28;20034;-76
2021/01/19 00:18:34;;;;;;;8.05;3.45;;;;;;;-1.81;100.00;96683.94;1032324;28;20026;-77
2021/01/19 00:19:04;;;;;;;9.55;3.92;;;;;;;-1.85;100.00;96670.25;1028051;28;20266;-76
2021/01/19 00:19:35;;;;;;;7.47;3.90;;;;;;;-1.80;100.00;96678.66;1032371;28;20027;-77
2021/01/19 00:20:07;;;;;;;11.32;4.47;;;;;;;-1.82;100.00;96682.28;1036353;28;20112;-77
2021/01/19 00:20:38;;;;;;;11.45;4.65;;;;;;;-1.86;100.00;96676.41;1032359;28;20030;-77
2021/01/19 00:21:09;;;;;;;9.93;4.10;;;;;;;-1.87;100.00;96676.47;1032304;28;20018;-76
2021/01/19 00:21:39;;;;;;;10.32;3.78;;;;;;;-1.83;100.00;96678.84;1028226;28;20029;-76
2021/01/19 00:22:10;;;;;;;8.98;3.75;;;;;;;-1.81;100.00;96673.53;1032203;28;20030;-77
2021/01/19 00:22:41;;;;;;;8.30;4.30;;;;;;;-1.92;100.00;96658.50;1024359;28;20023;-76
2021/01/19 00:23:12;;;;;;;9.75;4.70;;;;;;;-1.86;100.00;96673.81;1024155;29;20029;-76
2021/01/19 00:23:43;;;;;;;8.07;4.07;;;;;;;-1.81;100.00;96671.78;1020336;29;20016;-77
2021/01/19 00:24:14;;;;;;;10.48;3.55;;;;;;;-1.93;100.00;96655.06;1028288;28;20262;-76
2021/01/19 00:24:45;;;;;;;7.93;3.80;;;;;;;-1.78;100.00;96676.81;1032330;28;20394;-76
2021/01/19 00:25:16;;;;;;;6.85;3.40;;;;;;;-1.79;100.00;96674.31;1024132;29;20027;-76
2021/01/19 00:25:47;;;;;;;7.10;4.18;;;;;;;-1.88;100.00;96660.03;1028303;28;20361;-76
2021/01/19 00:26:18;;;;;;;7.72;3.78;;;;;;;-1.81;100.00;96670.94;1032274;28;20030;-77
2021/01/19 00:26:48;;;;;;;8.98;4.13;;;;;;;-1.86;100.00;96670.34;1032362;28;20030;-77
2021/01/19 00:27:19;;;;;;;7.47;3.90;;;;;;;-1.81;100.00;96676.13;1024226;29;20443;-76
2021/01/19 00:27:50;;;;;;;7.85;3.90;;;;;;;-1.81;100.00;96669.19;1032261;28;20427;-76
2021/01/19 00:28:21;;;;;;;11.65;5.05;;;;;;;-1.94;100.00;96648.16;1036300;28;20033;-76
2021/01/19 00:28:52;;;;;;;7.25;3.78;;;;;;;-1.82;100.00;96675.31;1036400;28;20018;-77
2021/01/19 00:29:23;;;;;;;7.72;4.07;;;;;;;-1.92;100.00;96658.50;1028097;28;20019;-77
2021/01/19 00:29:54;;;;;;;6.28;3.80;;;;;;;-1.80;100.00;96673.47;1028226;28;20054;-76
2021/01/19 00:30:25;;;;;;;5.93;3.47;;;;;;;-1.92;100.00;96658.50;1032265;28;20040;-76
2021/01/19 00:30:56;;;;;;;8.50;3.88;;;;;;;-1.82;100.00;96672.72;1024297;29;20024;-76
2021/01/19 00:31:27;;;;;;;7.78;3.92;;;;;;;-1.82;100.00;96672.72;1032106;28;20038;-77
2021/01/19 00:31:58;;;;;;;6.13;3.45;;;;;;;-1.81;100.00;96674.41;1032288;28;20033;-77
2021/01/19 00:32:28;;;;;;;7.63;4.05;;;;;;;-1.97;100.00;96652.69;1028153;28;20081;-76
2021/01/19 00:32:59;;;;;;;10.75;4.30;;;;;;;-1.85;100.00;96669.44;1036375;28;20499;-77
2021/01/19 00:33:30;;;;;;;7.50;3.72;;;;;;;-1.80;100.00;96683.03;1028146;28;20029;-76
2021/01/19 00:34:01;;;;;;;6.63;3.70;;;;;;;-1.94;100.00;96655.13;1036279;28;20033;-76
2021/01/19 00:34:32;;;;;;;6.18;3.70;;;;;;;-1.82;100.00;96680.50;1028249;28;20026;-77
2021/01/19 00:35:03;;;;;;;8.40;4.47;;;;;;;-1.81;100.00;96671.78;1032310;28;20532;-76
2021/01/19 00:35:35;;;;;;;11.48;4.18;;;;;;;-1.80;100.00;96678.66;1036394;28;20091;-76
2021/01/19 00:36:06;;;;;;;10.32;4.30;;;;;;;-1.87;100.00;96666.06;1032161;28;20045;-77
2021/01/19 00:36:37;;;;;;;6.85;3.63;;;;;;;-1.78;100.00;96682.03;1032300;28;20033;-77
2021/01/19 00:37:08;;;;;;;7.70;3.90;;;;;;;-1.86;100.00;96660.78;1032305;28;20022;-76
2021/01/19 00:37:39;;;;;;;10.88;3.88;;;;;;;-1.89;100.00;96658.34;1028053;28;20511;-76
2021/01/19 00:38:10;;;;;;;6.47;3.80;;;;;;;-1.82;100.00;96675.31;1028128;28;20456;-76
2021/01/19 00:38:40;;;;;;;7.82;3.92;;;;;;;-1.84;100.00;96681.53;1036289;28;20506;-76
2021/01/19 00:39:11;;;;;;;7.95;4.05;;;;;;;-1.82;100.00;96682.28;1028199;28;20547;-77
2021/01/19 00:39:42;;;;;;;7.30;3.70;;;;;;;-1.91;100.00;96671.44;1032121;28;20026;-76
2021/01/19 00:40:14;;;;;;;11.13;4.57;;;;;;;-1.83;100.00;96678.84;1028167;28;20029;-76
2021/01/19 00:40:45;;;;;;;6.18;3.78;;;;;;;-1.99;100.00;96657.97;1036294;28;20029;-76
2021/01/19 00:41:16;;;;;;;9.45;3.88;;;;;;;-1.84;100.00;96677.16;1032257;28;20034;-77
2021/01/19 00:41:47;;;;;;;7.80;3.90;;;;;;;-1.87;100.00;96679.09;1032148;28;20030;-76
2021/01/19 00:42:18;;;;;;;7.43;3.88;;;;;;;-1.98;100.00;96653.63;1040259;28;20021;-76
2021/01/19 00:42:48;;;;;;;8.05;4.30;;;;;;;-1.97;100.00;96661.38;1036110;28;20437;-77
2021/01/19 00:43:20;;;;;;;6.63;3.78;;;;;;;-1.87;100.00;96674.72;1028298;28;20022;-76
2021/01/19 00:43:52;;;;;;;8.98;4.45;;;;;;;-1.88;100.00;96670.44;1032267;28;20544;-76
2021/01/19 00:44:22;;;;;;;5.65;3.45;;;;;;;-1.94;100.00;96660.34;1032329;28;20101;-77
2021/01/19 00:44:53;;;;;;;10.68;4.85;;;;;;;-1.97;100.00;96653.56;1020226;29;20032;-76
2021/01/19 00:45:24;;;;;;;6.22;3.55;;;;;;;-2.09;100.00;96642.03;1032325;28;20030;-76
2021/01/19 00:45:56;;;;;;;8.63;4.40;;;;;;;-1.97;100.00;96652.69;1028212;28;20495;-77
2021/01/19 00:46:27;;;;;;;10.73;4.20;;;;;;;-1.91;100.00;96662.78;1032129;28;20030;-76
2021/01/19 00:46:58;;;;;;;7.40;3.78;;;;;;;-2.02;100.00;96650.34;1040256;28;20477;-76
2021/01/19 00:47:29;;;;;;;7.30;4.47;;;;;;;-2.01;100.00;96653.78;1028252;28;20031;-76
2021/01/19 00:48:00;;;;;;;10.05;4.82;;;;;;;-1.92;100.00;96663.69;1032182;28;20033;-77
2021/01/19 00:48:31;;;;;;;7.15;4.13;;;;;;;-1.93;100.00;96662.03;1032114;28;20141;-76
2021/01/19 00:49:02;;;;;;;7.90;3.70;;;;;;;-1.95;100.00;96659.50;1036136;28;20411;-77
2021/01/19 00:49:33;;;;;;;9.02;4.20;;;;;;;-1.95;100.00;96661.25;1032173;28;20045;-76
2021/01/19 00:50:06;;;;;;;9.88;4.00;;;;;;;-2.06;100.00;96650.59;1036271;28;20470;-76
2021/01/19 00:50:37;;;;;;;9.27;3.95;;;;;;;-1.97;100.00;96661.38;1032119;28;20038;-76
2021/01/19 00:51:08;;;;;;;9.35;4.50;;;;;;;-1.96;100.00;96662.19;1036301;28;20049;-77
2021/01/19 00:51:39;;;;;;;9.35;4.05;;;;;;;-2.00;100.00;96666.72;1036221;28;20024;-77
2021/01/19 00:52:10;;;;;;;6.40;3.95;;;;;;;-2.01;100.00;96665.03;1036158;28;20398;-77
2021/01/19 00:52:40;;;;;;;8.77;4.28;;;;;;;-2.10;100.00;96652.50;1028013;28;20097;-76
2021/01/19 00:53:11;;;;;;;8.13;4.53;;;;;;;-2.01;100.00;96665.03;1032164;28;20026;-77
2021/01/19 00:53:42;;;;;;;8.15;4.00;;;;;;;-1.99;100.00;96667.56;1028220;28;20033;-77
2021/01/19 00:54:13;;;;;;;7.45;4.25;;;;;;;-2.00;100.00;96665.84;1032195;28;20049;-77
2021/01/19 00:54:43;;;;;;;7.35;3.85;;;;;;;-2.00;100.00;96671.06;1032035;28;20028;-77
2021/01/19 00:55:15;;;;;;;13.23;4.57;;;;;;;-2.03;100.00;96664.28;1032382;28;20051;-77
2021/01/19 00:55:46;;;;;;;7.40;3.88;;;;;;;-2.08;100.00;96661.06;1032164;28;20069;-76
2021/01/19 00:56:17;;;;;;;7.80;4.30;;;;;;;-2.21;100.00;96645.28;1032139;28;20344;-76
2021/01/19 00:56:47;;;;;;;8.45;4.82;;;;;;;-2.06;100.00;96653.19;1036066;28;20311;-76
2021/01/19 00:57:18;;;;;;;10.73;4.40;;;;;;;-2.13;100.00;96658.69;1024421;28;20031;-77
2021/01/19 00:57:49;;;;;;;8.75;4.40;;;;;;;-2.25;100.00;96638.53;1032086;28;20449;-75
2021/01/19 00:58:20;;;;;;;7.97;4.47;;;;;;;-2.10;100.00;96663.75;1020337;29;20374;-77
2021/01/19 00:58:51;;;;;;;11.13;4.47;;;;;;;-2.23;100.00;96641.91;1032048;28;20431;-76
2021/01/19 00:59:21;;;;;;;8.05;4.18;;;;;;;-2.21;100.00;96637.47;1028036;28;20526;-77
2021/01/19 00:59:52;;;;;;;8.23;4.57;;;;;;;-2.13;100.00;96656.09;1036261;28;20375;-77
2021/01/19 01:00:23;;;;;;;8.07;4.55;;;;;;;-2.45;100.00;96610.16;1032238;28;20429;-76
2021/01/19 01:00:54;;;;;;;9.52;4.35;;;;;;;-2.22;100.00;96653.16;1040049;28;20030;-76
2021/01/19 01:01:24;;;;;;;9.98;5.18;;;;;;;-2.17;100.00;96654.59;1028365;28;20266;-76
2021/01/19 01:01:55;;;;;;;12.25;5.50;;;;;;;-2.30;100.00;96630.13;1036277;28;20094;-77
2021/01/19 01:02:26;;;;;;;8.35;4.72;;;;;;;-2.13;100.00;96656.09;1028040;28;20023;-76
2021/01/19 01:02:56;;;;;;;8.57;4.30;;;;;;;-2.12;100.00;96660.41;1032073;28;20533;-76
2021/01/19 01:03:29;;;;;;;8.88;4.32;;;;;;;-2.12;100.00;96663.00;1036235;28;20025;-77
2021/01/19 01:04:01;;;;;;;7.25;4.20;;;;;;;-2.12;100.00;96656.97;1028154;28;20023;-77
2021/01/19 01:04:31;;;;;;;9.25;4.22;;;;;;;-2.18;100.00;96652.06;1032175;28;20265;-76
2021/01/19 01:05:03;;;;;;;11.23;4.45;;;;;;;-2.18;100.00;96657.28;1027886;28;20407;-76
2021/01/19 01:05:34;;;;;;;12.80;4.90;;;;;;;-2.12;100.00;96662.16;1032226;28;20018;-76
2021/01/19 01:06:05;;;;;;;8.48;4.82;;;;;;;-2.35;100.00;96619.13;1036057;28;20347;-77
2021/01/19 01:06:35;;;;;;;8.75;4.80;;;;;;;-2.22;100.00;96646.19;1028099;28;20046;-76
2021/01/19 01:07:07;;;;;;;13.35;5.28;;;;;;;-2.19;100.00;96655.59;1035963;28;20026;-76
2021/01/19 01:07:41;;;;;;;9.98;4.68;;;;;;;-2.22;100.00;96661.78;1032122;28;20018;-77
2021/01/19 01:08:11;;;;;;;6.97;4.28;;;;;;;-2.56;100.00;96611.53;1032119;28;20032;-77
2021/01/19 01:08:42;;;;;;;7.95;4.65;;;;;;;-2.32;100.00;96650.19;1024190;28;20644;-77
2021/01/19 01:09:13;;;;;;;12.20;5.97;;;;;;;-2.40;100.00;96632.38;1036035;28;20028;-75
2021/01/19 01:09:45;;;;;;;8.52;4.50;;;;;;;-2.28;100.00;96655.16;1024143;28;20354;-76
2021/01/19 01:10:16;;;;;;;10.75;4.80;;;;;;;-2.28;100.00;96651.72;1032157;28;20537;-77
2021/01/19 01:10:47;;;;;;;7.25;4.30;;;;;;;-2.38;100.00;96640.09;1032233;28;20046;-77
2021/01/19 01:11:18;;;;;;;9.63;4.68;;;;;;;-2.27;100.00;96655.97;1023975;29;20271;-76
2021/01/19 01:11:49;;;;;;;10.55;4.78;;;;;;;-2.24;100.00;96655.00;1036157;28;20387;-75
2021/01/19 01:12:23;;;;;;;8.32;5.00;;;;;;;-2.26;100.00;96647.28;1028071;28;20027;-76
2021/01/19 01:12:54;;;;;;;10.77;4.82;;;;;;;-2.27;100.00;96650.78;1031845;28;20030;-76
2021/01/19 01:13:24;;;;;;;10.15;5.80;;;;;;;-2.40;100.00;96632.38;1035549;28;20465;-76
2021/01/19 01:13:55;;;;;;;9.75;5.15;;;;;;;-2.26;100.00;96649.88;1036151;28;20050;-77
2021/01/19 01:14:38;;;;;;;9.38;4.78;;;;;;;-2.22;100.00;96647.94;1036202;28;20104;-77
2021/01/19 01:15:10;;;;;;;7.50;4.55;;;;;;;-2.22;100.00;96659.19;1028153;28;20487;-76
2021/01/19 01:15:40;;;;;;;9.75;5.57;;;;;;;-2.28;100.00;96649.13;1031867;28;20268;-75
2021/01/19 01:16:13;;;;;;;8.00;4.93;;;;;;;-2.27;100.00;96656.81;1032081;28;20337;-77
2021/01/19 01:16:44;;;;;;;8.90;5.43;;;;;;;-2.28;100.00;96651.72;1028161;28;20026;-77
2021/01/19 01:17:15;;;;;;;11.82;5.20;;;;;;;-2.24;100.00;96652.41;1032055;28;20282;-77
2021/01/19 01:17:46;;;;;;;10.20;5.50;;;;;;;-2.37;100.00;96641.78;1035952;28;20163;-77
2021/01/19 01:18:17;;;;;;;12.75;5.38;;;;;;;-2.30;100.00;96651.78;1032074;28;20022;-76
2021/01/19 01:18:49;;;;;;;10.45;5.75;;;;;;;-2.25;100.00;96654.13;1028072;28;20037;-77
2021/01/19 01:19:20;;;;;;;9.68;4.85;;;;;;;-2.38;100.00;96632.31;1027954;28;20023;-76
2021/01/19 01:19:51;;;;;;;9.55;6.07;;;;;;;-2.27;100.00;96655.97;1040034;28;20267;-75
2021/01/19 01:20:22;;;;;;;12.10;6.22;;;;;;;-2.27;100.00;96655.97;1032110;28;20022;-76
2021/01/19 01:20:53;;;;;;;9.85;5.28;;;;;;;-2.33;100.00;96651.13;1032059;28;20014;-76
2021/01/19 01:21:24;;;;;;;10.48;5.68;;;;;;;-2.27;100.00;96656.81;1036092;28;20072;-76
2021/01/19 01:21:55;;;;;;;14.18;5.97;;;;;;;-2.26;100.00;96655.06;1036062;28;20022;-77
2021/01/19 01:22:25;;;;;;;16.83;6.32;;;;;;;-2.39;100.00;96643.63;1040096;28;20036;-77
2021/01/19 01:22:56;;;;;;;10.40;5.63;;;;;;;-2.33;100.00;96658.91;1032224;28;20033;-77
2021/01/19 01:23:27;;;;;;;10.35;6.15;;;;;;;-2.32;100.00;96657.97;1032023;28;20109;-76
2021/01/19 01:23:58;;;;;;;9.02;5.40;;;;;;;-2.43;100.00;96647.31;1035984;28;20026;-76
2021/01/19 01:24:29;;;;;;;10.18;5.72;;;;;;;-2.35;100.00;96660.72;1032065;28;20505;-77
2021/01/19 01:25:00;;;;;;;12.25;5.47;;;;;;;-2.52;100.00;96630.41;1032065;28;20121;-76
2021/01/19 01:25:30;;;;;;;11.30;5.45;;;;;;;-2.37;100.00;96655.63;1032000;28;20022;-77
2021/01/19 01:26:01;;;;;;;9.32;5.55;;;;;;;-2.38;100.00;96655.72;1040029;28;20028;-75
2021/01/19 01:26:34;;;;;;;9.95;6.13;;;;;;;-2.49;100.00;96640.63;1031988;28;20022;-76
2021/01/19 01:27:05;;;;;;;10.43;5.68;;;;;;;-2.44;100.00;96659.44;1032055;28;20022;-76
2021/01/19 01:27:36;;;;;;;11.98;6.20;;;;;;;-2.63;100.00;96635.31;1036000;28;20268;-76
2021/01/19 01:28:07;;;;;;;11.15;5.97;;;;;;;-2.44;100.00;96648.22;1035981;28;20417;-76
2021/01/19 01:28:37;;;;;;;9.23;5.72;;;;;;;-2.57;100.00;96630.63;1032018;28;20467;-76
2021/01/19 01:29:08;;;;;;;9.05;5.38;;;;;;;-2.48;100.00;96652.72;1040179;28;20083;-77
2021/01/19 01:29:40;;;;;;;14.00;6.05;;;;;;;-2.54;100.00;96661.69;1036110;28;20442;-76
2021/01/19 01:30:12;;;;;;;10.73;5.63;;;;;;;-2.67;100.00;96634.63;1032071;28;20450;-77
2021/01/19 01:30:43;;;;;;;10.98;6.18;;;;;;;-2.67;100.00;96638.06;1020078;29;20322;-77
2021/01/19 01:31:18;;;;;;;10.38;5.93;;;;;;;-2.57;100.00;96664.44;1028067;28;20707;-77
2021/01/19 01:31:49;;;;;;;12.00;5.88;;;;;;;-2.72;100.00;96634.00;1032034;28;20375;-76
2021/01/19 01:32:20;;;;;;;9.23;5.78;;;;;;;-2.69;100.00;96641.66;1036009;28;20245;-75
2021/01/19 01:32:51;;;;;;;11.57;5.93;;;;;;;-2.59;100.00;96658.47;1032061;28;20383;-77
2021/01/19 01:33:22;;;;;;;11.23;6.05;;;;;;;-2.71;100.00;96646.09;1032019;28;20033;-76
2021/01/19 01:33:53;;;;;;;10.00;5.63;;;;;;;-2.62;100.00;96663.00;1036184;28;20256;-77
2021/01/19 01:34:24;;;;;;;11.60;6.63;;;;;;;-2.73;100.00;96634.94;1031878;28;20447;-76
2021/01/19 01:34:55;;;;;;;11.43;6.28;;;;;;;-2.63;100.00;96650.91;1032105;28;20265;-77
2021/01/19 01:35:26;;;;;;;12.10;6.07;;;;;;;-2.89;100.00;96611.47;1031990;28;20073;-76
2021/01/19 01:35:56;;;;;;;11.85;6.45;;;;;;;-2.62;100.00;96658.63;1031982;28;20049;-76
2021/01/19 01:36:27;;;;;;;10.75;6.18;;;;;;;-2.63;100.00;96656.09;1032005;28;20515;-76
2021/01/19 01:36:58;;;;;;;11.77;6.28;;;;;;;-2.82;100.00;96627.59;1027968;28;20023;-77
2021/01/19 01:37:29;;;;;;;13.25;6.40;;;;;;;-2.63;100.00;96658.69;1035875;28;20026;-77
2021/01/19 01:38:00;;;;;;;10.10;6.20;;;;;;;-2.66;100.00;96651.91;1032004;28;20019;-76
2021/01/19 01:38:31;;;;;;;10.68;5.90;;;;;;;-2.73;100.00;96646.19;1032083;28;20025;-76
2021/01/19 01:39:02;;;;;;;14.30;6.45;;;;;;;-2.78;100.00;96639.53;1028099;28;20113;-76
2021/01/19 01:39:33;;;;;;;11.57;5.80;;;;;;;-2.69;100.00;96652.91;1032221;28;20131;-77
2021/01/19 01:40:04;;;;;;;11.35;6.25;;;;;;;-2.84;100.00;96625.06;1032011;28;20065;-77
2021/01/19 01:40:36;;;;;;;10.90;5.80;;;;;;;-2.69;100.00;96647.69;1027861;28;20562;-76
2021/01/19 01:41:16;;;;;;;14.00;6.60;;;;;;;-2.69;100.00;96652.91;1031893;28;20272;-77
2021/01/19 01:41:47;;;;;;;13.20;6.50;;;;;;;-2.68;100.00;96653.75;1032054;28;20340;-76
2021/01/19 01:42:21;;;;;;;12.75;6.25;;;;;;;-2.67;100.00;96650.22;1031776;28;20811;-77
2021/01/19 01:42:55;;;;;;;11.27;5.93;;;;;;;-2.68;100.00;96648.56;1031993;28;20117;-76
2021/01/19 01:43:25;;;;;;;11.45;6.00;;;;;;;-2.67;100.00;96655.41;1027964;28;20341;-77
2021/01/19 01:43:56;;;;;;;11.75;6.15;;;;;;;-2.69;100.00;96647.69;1032048;28;20625;-77
2021/01/19 01:44:27;;;;;;;11.90;6.85;;;;;;;-2.69;100.00;96652.06;1031874;28;20030;-75
2021/01/19 01:44:58;;;;;;;12.93;6.43;;;;;;;-2.71;100.00;96648.72;1036047;28;20021;-77
2021/01/19 01:45:29;;;;;;;13.63;6.00;;;;;;;-2.74;100.00;96644.47;1027983;28;20399;-76
2021/01/19 01:45:59;;;;;;;10.52;6.13;;;;;;;-2.79;100.00;96649.06;1040179;28;20418;-76
2021/01/19 01:46:30;;;;;;;11.20;6.75;;;;;;;-2.70;100.00;96651.22;1035939;28;20030;-77
2021/01/19 01:47:02;;;;;;;13.30;6.40;;;;;;;-2.83;100.00;96625.94;1040082;28;20032;-77
2021/01/19 01:47:33;;;;;;;10.57;6.30;;;;;;;-2.68;100.00;96651.16;1027924;28;20658;-76
2021/01/19 01:48:04;;;;;;;13.27;6.15;;;;;;;-2.79;100.00;96632.66;1029122;28;20273;-76
2021/01/19 01:48:35;;;;;;;12.15;7.13;;;;;;;-2.69;100.00;96654.66;1037311;28;20056;-75
2021/01/19 01:49:09;;;;;;;11.57;6.35;;;;;;;-2.69;100.00;96646.88;1033261;28;20347;-77
2021/01/19 01:49:39;;;;;;;11.13;6.00;;;;;;;-2.79;100.00;96624.84;1037626;28;20040;-77
2021/01/19 01:50:11;;;;;;;12.00;6.03;;;;;;;-2.67;100.00;96642.41;1033413;28;20262;-76
2021/01/19 01:50:42;;;;;;;12.43;6.50;;;;;;;-2.67;100.00;96637.22;1033266;28;20026;-77
2021/01/19 01:51:13;;;;;;;11.50;6.68;;;;;;;-2.65;100.00;96643.19;1033314;28;20257;-75
2021/01/19 01:51:43;;;;;;;13.38;6.38;;;;;;;-2.62;100.00;96647.41;1032978;28;20032;-77
2021/01/19 01:52:15;;;;;;;10.52;6.53;;;;;;;-2.65;100.00;96627.59;1033086;28;20065;-75
2021/01/19 01:52:46;;;;;;;11.25;6.55;;;;;;;-2.60;100.00;96635.16;1033048;28;20546;-76
2021/01/19 01:53:17;;;;;;;11.48;6.55;;;;;;;-2.70;100.00;96634.78;1041531;28;20295;-76
2021/01/19 01:53:48;;;;;;;11.15;6.05;;;;;;;-2.76;100.00;96606.50;1033263;28;20018;-77
2021/01/19 01:54:19;;;;;;;10.48;6.00;;;;;;;-2.71;100.00;96617.50;1033543;28;20026;-76
2021/01/19 01:54:50;;;;;;;12.18;6.85;;;;;;;-2.74;100.00;96625.47;1020704;29;20272;-76
2021/01/19 01:55:21;;;;;;;9.82;5.75;;;;;;;-2.62;100.00;96631.81;1029039;28;20058;-75
2021/01/19 01:55:52;;;;;;;14.45;6.07;;;;;;;-2.74;100.00;96620.25;1029096;28;20077;-77
2021/01/19 01:56:23;;;;;;;10.85;6.80;;;;;;;-2.64;100.00;96636.25;1029252;28;20475;-76
2021/01/19 01:56:53;;;;;;;9.90;5.60;;;;;;;-2.66;100.00;96637.16;1033018;28;20537;-74
2021/01/19 01:57:24;;;;;;;12.23;5.90;;;;;;;-2.67;100.00;96635.44;1041309;28;20029;-76
2021/01/19 01:57:55;;;;;;;10.88;6.38;;;;;;;-2.66;100.00;96638.91;1032976;28;20026;-77
2021/01/19 01:58:26;;;;;;;11.93;6.43;;;;;;;-2.68;100.00;96641.59;1033071;28;20049;-76
2021/01/19 01:58:57;;;;;;;9.30;5.90;;;;;;;-2.77;100.00;96623.88;1033054;28;20352;-76
2021/01/19 01:59:28;;;;;;;12.32;6.60;;;;;;;-2.66;100.00;96637.16;1029356;28;20503;-76
2021/01/19 01:59:59;;;;;;;11.23;6.10;;;;;;;-2.72;100.00;96626.22;1037481;28;20256;-75
2021/01/19 02:00:30;;;;;;;12.02;6.30;;;;;;;-2.69;100.00;96632.09;1032560;28;20033;-76
2021/01/19 02:01:01;;;;;;;13.40;6.30;;;;;;;-3.06;100.00;96579.38;1036110;28;20265;-76
2021/01/19 02:01:32;;;;;;;12.48;6.45;;;;;;;-2.89;100.00;96601.06;1031906;28;20049;-75
2021/01/19 02:02:10;;;;;;;16.63;6.88;;;;;;;-2.76;100.00;96627.31;1036143;28;20876;-76
2021/01/19 02:02:51;;;;;;;11.15;6.63;;;;;;;-2.88;100.00;96624.38;1031973;28;20507;-76
2021/01/19 02:03:22;;;;;;;10.73;5.97;;;;;;;-2.79;100.00;96630.03;1035855;28;20268;-76
2021/01/19 02:03:53;;;;;;;11.00;6.28;;;;;;;-2.92;100.00;96614.25;1027617;28;20262;-75
2021/01/19 02:04:24;;;;;;;12.32;7.40;;;;;;;-2.94;100.00;96606.53;1031931;28;20113;-76
2021/01/19 02:04:56;;;;;;;14.80;6.40;;;;;;;-2.91;100.00;96621.97;1032077;28;20261;-76
2021/01/19 02:05:27;;;;;;;14.73;5.93;;;;;;;-3.00;100.00;96600.78;1035945;28;20022;-76
2021/01/19 02:05:58;;;;;;;12.43;6.40;;;;;;;-2.88;100.00;96619.19;1027975;28;20258;-76
2021/01/19 02:06:30;;;;;;;12.10;6.63;;;;;;;-2.88;100.00;96621.78;1035964;28;20028;-76
2021/01/19 02:07:04;;;;;;;11.15;6.28;;;;;;;-2.89;100.00;96625.31;1036012;28;20273;-76
2021/01/19 02:07:44;;;;;;;11.50;6.18;;;;;;;-2.94;100.00;96616.91;1031697;28;20261;-76
2021/01/19 02:08:25;;;;;;;12.48;6.53;;;;;;;-2.98;100.00;96610.16;1023886;29;20778;-76
2021/01/19 02:08:58;;;;;;;11.20;6.35;;;;;;;-2.88;100.00;96618.34;1028135;28;20750;-76
2021/01/19 02:09:29;;;;;;;10.15;5.95;;;;;;;-2.92;100.00;96620.25;1027782;28;20290;-76
2021/01/19 02:10:09;;;;;;;11.75;6.30;;;;;;;-3.06;100.00;96599.34;1031951;28;20257;-76
2021/01/19 02:10:46;;;;;;;11.18;5.90;;;;;;;-2.94;100.00;96618.69;1031943;28;20108;-76
2021/01/19 02:11:29;;;;;;;12.80;6.15;;;;;;;-3.10;100.00;96590.00;1032023;28;20746;-76
2021/01/19 02:12:03;;;;;;;11.35;5.97;;;;;;;-2.95;100.00;96620.41;1036016;28;20645;-76
2021/01/19 02:12:40;;;;;;;11.43;6.80;;;;;;;-2.95;100.00;96620.41;1031982;28;20285;-76
2021/01/19 02:13:16;;;;;;;9.60;6.20;;;;;;;-3.00;100.00;96606.81;1031845;28;20265;-76
2021/01/19 02:13:50;;;;;;;10.57;6.03;;;;;;;-2.92;100.00;96620.25;1027796;28;20269;-75
2021/01/19 02:14:34;;;;;;;14.75;6.72;;;;;;;-3.02;100.00;96603.44;1031881;28;20261;-76
2021/01/19 02:15:06;;;;;;;14.15;6.45;;;;;;;-3.05;100.00;96593.22;1027874;28;20250;-76
2021/01/19 02:15:41;;;;;;;11.45;6.10;;;;;;;-2.90;100.00;96623.63;1031867;28;20311;-75
2021/01/19 02:16:30;;;;;;;11.30;6.57;;;;;;;-3.01;100.00;96602.53;1035954;28;20785;-76
2021/01/19 02:17:14;;;;;;;13.18;6.25;;;;;;;-3.05;100.00;96601.00;1027910;28;20337;-76
2021/01/19 02:17:57;;;;;;;12.93;5.90;;;;;;;-3.00;100.00;96612.00;1035819;28;20265;-76
2021/01/19 02:18:33;;;;;;;11.00;5.80;;;;;;;-3.00;100.00;96601.63;1023987;29;20625;-76
2021/01/19 02:19:25;;;;;;;11.57;6.55;;;;;;;-2.82;100.00;96622.41;1039924;28;20329;-76
2021/01/19 02:20:15;;;;;;;12.23;6.18;;;;;;;-2.80;100.00;96617.97;1023805;29;20271;-76
2021/01/19 02:21:05;;;;;;;11.82;6.40;;;;;;;-2.81;100.00;96626.69;1031846;28;20265;-76
2021/01/19 02:21:47;;;;;;;14.05;6.18;;;;;;;-2.75;100.00;96613.38;1019873;29;20353;-76
2021/01/19 02:22:28;;;;;;;11.02;5.07;;;;;;;-2.78;100.00;96611.78;1031833;28;20254;-76
2021/01/19 02:23:09;;;;;;;11.95;6.45;;;;;;;-2.80;100.00;96603.22;1027875;28;20788;-76
2021/01/19 02:23:50;;;;;;;13.00;6.18;;;;;;;-2.76;100.00;96619.50;1035936;28;20276;-76
2021/01/19 02:24:31;;;;;;;11.23;6.00;;;;;;;-2.75;100.00;96610.78;1035667;28;20816;-76
2021/01/19 02:25:10;;;;;;;14.98;6.70;;;;;;;-3.01;100.00;96568.78;1039995;28;20377;-76
2021/01/19 02:25:50;;;;;;;10.07;5.95;;;;;;;-2.80;100.00;96599.75;1035878;28;20255;-76
2021/01/19 02:26:34;;;;;;;14.20;6.18;;;;;;;-2.75;100.00;96610.78;1035737;28;20241;-76
2021/01/19 02:27:11;;;;;;;13.15;6.20;;;;;;;-2.80;100.00;96599.75;1035995;28;20257;-76
2021/01/19 02:28:01;;;;;;;14.50;7.25;;;;;;;-2.72;100.00;96611.44;1027869;28;20265;-76
2021/01/19 02:28:41;;;;;;;12.48;6.90;;;;;;;-2.82;100.00;96591.22;1027890;28;20487;-76
2021/01/19 02:29:33;;;;;;;12.88;6.43;;;;;;;-2.72;100.00;96608.03;1027920;28;20250;-76
2021/01/19 02:30:07;;;;;;;14.60;7.57;;;;;;;-2.74;100.00;96599.47;1027702;28;20265;-76